sensor_id;sensor_type;location;lat;lon;timestamp;P1;durP1;ratioP1;P2;durP2;ratioP2
13834;SDS011;6988;52.614;13.500;2022-08-20T00:01:10;19.10;;;17.30;;
13834;SDS011;6988;52.614;13.500;2022-08-20T00:06:03;20.83;;;18.77;;
13834;SDS011;6988;52.614;13.500;2022-08-20T00:11:00;19.90;;;17.98;;
13834;SDS011;6988;52.614;13.500;2022-08-20T00:15:54;16.70;;;15.05;;
13834;SDS011;6988;52.614;13.500;2022-08-20T00:20:49;14.13;;;12.75;;
13834;SDS011;6988;52.614;13.500;2022-08-20T00:25:43;13.90;;;12.60;;
13834;SDS011;6988;52.614;13.500;2022-08-20T00:30:36;14.57;;;13.18;;
13834;SDS011;6988;52.614;13.500;2022-08-20T00:35:30;16.08;;;14.43;;
13834;SDS011;6988;52.614;13.500;2022-08-20T00:40:28;15.18;;;13.57;;
13834;SDS011;6988;52.614;13.500;2022-08-20T00:45:24;14.02;;;12.77;;
13834;SDS011;6988;52.614;13.500;2022-08-20T00:50:19;14.13;;;12.82;;
13834;SDS011;6988;52.614;13.500;2022-08-20T00:55:17;14.90;;;13.50;;
13834;SDS011;6988;52.614;13.500;2022-08-20T01:00:18;17.07;;;15.47;;
13834;SDS011;6988;52.614;13.500;2022-08-20T01:05:15;18.50;;;16.60;;
13834;SDS011;6988;52.614;13.500;2022-08-20T01:10:08;20.48;;;18.38;;
13834;SDS011;6988;52.614;13.500;2022-08-20T01:15:05;22.00;;;19.67;;
13834;SDS011;6988;52.614;13.500;2022-08-20T01:20:05;23.08;;;20.67;;
13834;SDS011;6988;52.614;13.500;2022-08-20T01:25:06;25.17;;;21.87;;
13834;SDS011;6988;52.614;13.500;2022-08-20T01:30:11;23.03;;;20.67;;
13834;SDS011;6988;52.614;13.500;2022-08-20T01:35:03;22.17;;;19.87;;
13834;SDS011;6988;52.614;13.500;2022-08-20T01:39:58;22.93;;;20.53;;
13834;SDS011;6988;52.614;13.500;2022-08-20T01:44:51;23.13;;;19.73;;
13834;SDS011;6988;52.614;13.500;2022-08-20T01:49:45;26.10;;;21.07;;
13834;SDS011;6988;52.614;13.500;2022-08-20T01:54:40;23.37;;;20.87;;
13834;SDS011;6988;52.614;13.500;2022-08-20T01:59:32;22.50;;;20.17;;
13834;SDS011;6988;52.614;13.500;2022-08-20T02:04:24;23.10;;;20.80;;
13834;SDS011;6988;52.614;13.500;2022-08-20T02:09:18;22.92;;;20.52;;
13834;SDS011;6988;52.614;13.500;2022-08-20T02:14:10;21.73;;;19.40;;
13834;SDS011;6988;52.614;13.500;2022-08-20T02:19:03;21.93;;;19.57;;
13834;SDS011;6988;52.614;13.500;2022-08-20T02:24:01;21.67;;;19.47;;
13834;SDS011;6988;52.614;13.500;2022-08-20T02:28:55;20.73;;;18.63;;
13834;SDS011;6988;52.614;13.500;2022-08-20T02:33:48;19.73;;;17.73;;
13834;SDS011;6988;52.614;13.500;2022-08-20T02:38:40;20.87;;;18.13;;
13834;SDS011;6988;52.614;13.500;2022-08-20T02:43:32;18.87;;;17.03;;
13834;SDS011;6988;52.614;13.500;2022-08-20T02:48:25;17.90;;;16.10;;
13834;SDS011;6988;52.614;13.500;2022-08-20T02:53:19;18.90;;;16.40;;
13834;SDS011;6988;52.614;13.500;2022-08-20T02:58:11;19.40;;;17.40;;
13834;SDS011;6988;52.614;13.500;2022-08-20T03:03:04;18.83;;;16.90;;
13834;SDS011;6988;52.614;13.500;2022-08-20T03:07:59;19.40;;;17.40;;
13834;SDS011;6988;52.614;13.500;2022-08-20T03:12:51;19.53;;;17.53;;
13834;SDS011;6988;52.614;13.500;2022-08-20T03:17:43;18.33;;;16.50;;
13834;SDS011;6988;52.614;13.500;2022-08-20T03:22:35;19.27;;;17.37;;
13834;SDS011;6988;52.614;13.500;2022-08-20T03:27:28;18.40;;;16.37;;
13834;SDS011;6988;52.614;13.500;2022-08-20T03:32:20;18.67;;;16.80;;
13834;SDS011;6988;52.614;13.500;2022-08-20T03:37:12;20.20;;;18.13;;
13834;SDS011;6988;52.614;13.500;2022-08-20T03:42:04;19.87;;;17.13;;
13834;SDS011;6988;52.614;13.500;2022-08-20T03:46:58;19.03;;;17.10;;
13834;SDS011;6988;52.614;13.500;2022-08-20T03:51:50;20.57;;;18.33;;
13834;SDS011;6988;52.614;13.500;2022-08-20T03:56:42;21.70;;;19.43;;
13834;SDS011;6988;52.614;13.500;2022-08-20T04:01:33;22.40;;;20.00;;
13834;SDS011;6988;52.614;13.500;2022-08-20T04:06:27;21.70;;;19.37;;
13834;SDS011;6988;52.614;13.500;2022-08-20T04:11:19;21.77;;;19.63;;
13834;SDS011;6988;52.614;13.500;2022-08-20T04:16:11;21.10;;;18.93;;
13834;SDS011;6988;52.614;13.500;2022-08-20T04:21:03;24.20;;;21.17;;
13834;SDS011;6988;52.614;13.500;2022-08-20T04:25:57;23.23;;;20.83;;
13834;SDS011;6988;52.614;13.500;2022-08-20T04:30:50;25.13;;;22.53;;
13834;SDS011;6988;52.614;13.500;2022-08-20T04:35:42;26.40;;;23.20;;
13834;SDS011;6988;52.614;13.500;2022-08-20T04:40:35;24.57;;;21.97;;
13834;SDS011;6988;52.614;13.500;2022-08-20T04:45:51;25.77;;;23.10;;
13834;SDS011;6988;52.614;13.500;2022-08-20T04:50:44;26.37;;;23.53;;
13834;SDS011;6988;52.614;13.500;2022-08-20T04:55:38;26.10;;;22.87;;
13834;SDS011;6988;52.614;13.500;2022-08-20T05:00:32;26.40;;;23.43;;
13834;SDS011;6988;52.614;13.500;2022-08-20T05:05:26;27.43;;;23.97;;
13834;SDS011;6988;52.614;13.500;2022-08-20T05:10:18;27.23;;;23.77;;
13834;SDS011;6988;52.614;13.500;2022-08-20T05:15:11;27.27;;;24.17;;
13834;SDS011;6988;52.614;13.500;2022-08-20T05:20:03;28.77;;;24.53;;
13834;SDS011;6988;52.614;13.500;2022-08-20T05:24:59;26.77;;;23.87;;
13834;SDS011;6988;52.614;13.500;2022-08-20T05:29:50;27.67;;;24.63;;
13834;SDS011;6988;52.614;13.500;2022-08-20T05:34:44;28.47;;;25.47;;
13834;SDS011;6988;52.614;13.500;2022-08-20T05:39:36;28.10;;;25.10;;
13834;SDS011;6988;52.614;13.500;2022-08-20T05:44:29;28.40;;;25.33;;
13834;SDS011;6988;52.614;13.500;2022-08-20T05:49:21;28.93;;;25.73;;
13834;SDS011;6988;52.614;13.500;2022-08-20T05:54:13;28.93;;;25.77;;
13834;SDS011;6988;52.614;13.500;2022-08-20T05:59:06;28.40;;;25.33;;
13834;SDS011;6988;52.614;13.500;2022-08-20T06:04:01;29.47;;;26.33;;
13834;SDS011;6988;52.614;13.500;2022-08-20T06:09:12;25.20;;;22.50;;
13834;SDS011;6988;52.614;13.500;2022-08-20T06:14:05;29.10;;;25.73;;
13834;SDS011;6988;52.614;13.500;2022-08-20T06:18:57;26.77;;;23.20;;
13834;SDS011;6988;52.614;13.500;2022-08-20T06:23:50;27.30;;;24.40;;
13834;SDS011;6988;52.614;13.500;2022-08-20T06:28:42;27.00;;;23.93;;
13834;SDS011;6988;52.614;13.500;2022-08-20T06:33:34;26.87;;;23.47;;
13834;SDS011;6988;52.614;13.500;2022-08-20T06:38:25;27.67;;;24.77;;
13834;SDS011;6988;52.614;13.500;2022-08-20T06:43:18;25.33;;;22.63;;
13834;SDS011;6988;52.614;13.500;2022-08-20T06:48:11;26.10;;;23.37;;
13834;SDS011;6988;52.614;13.500;2022-08-20T06:53:06;27.60;;;24.70;;
13834;SDS011;6988;52.614;13.500;2022-08-20T06:58:00;27.10;;;24.33;;
13834;SDS011;6988;52.614;13.500;2022-08-20T07:02:56;27.20;;;24.40;;
13834;SDS011;6988;52.614;13.500;2022-08-20T07:07:50;28.10;;;25.17;;
13834;SDS011;6988;52.614;13.500;2022-08-20T07:12:41;30.27;;;25.43;;
13834;SDS011;6988;52.614;13.500;2022-08-20T07:17:33;30.47;;;27.23;;
13834;SDS011;6988;52.614;13.500;2022-08-20T07:22:27;28.00;;;25.10;;
13834;SDS011;6988;52.614;13.500;2022-08-20T07:27:20;32.03;;;26.63;;
13834;SDS011;6988;52.614;13.500;2022-08-20T07:32:12;31.27;;;27.80;;
13834;SDS011;6988;52.614;13.500;2022-08-20T07:37:21;31.87;;;27.73;;
13834;SDS011;6988;52.614;13.500;2022-08-20T07:42:15;32.60;;;28.33;;
13834;SDS011;6988;52.614;13.500;2022-08-20T07:47:06;33.00;;;28.80;;
13834;SDS011;6988;52.614;13.500;2022-08-20T07:51:58;35.28;;;29.30;;
13834;SDS011;6988;52.614;13.500;2022-08-20T07:56:50;33.50;;;28.83;;
13834;SDS011;6988;52.614;13.500;2022-08-20T08:01:44;33.00;;;28.33;;
13834;SDS011;6988;52.614;13.500;2022-08-20T08:06:36;34.87;;;28.77;;
13834;SDS011;6988;52.614;13.500;2022-08-20T08:11:30;36.00;;;31.27;;
13834;SDS011;6988;52.614;13.500;2022-08-20T08:16:24;34.37;;;30.00;;
13834;SDS011;6988;52.614;13.500;2022-08-20T08:21:21;36.17;;;31.60;;
13834;SDS011;6988;52.614;13.500;2022-08-20T08:26:13;36.17;;;32.10;;
13834;SDS011;6988;52.614;13.500;2022-08-20T08:31:06;35.67;;;30.37;;
13834;SDS011;6988;52.614;13.500;2022-08-20T08:35:59;36.60;;;31.10;;
13834;SDS011;6988;52.614;13.500;2022-08-20T08:40:56;38.88;;;32.00;;
13834;SDS011;6988;52.614;13.500;2022-08-20T08:45:56;34.22;;;30.52;;
13834;SDS011;6988;52.614;13.500;2022-08-20T08:50:51;38.37;;;32.27;;
13834;SDS011;6988;52.614;13.500;2022-08-20T08:55:47;36.80;;;31.73;;
13834;SDS011;6988;52.614;13.500;2022-08-20T09:00:40;36.37;;;31.10;;
13834;SDS011;6988;52.614;13.500;2022-08-20T09:05:35;36.00;;;32.00;;
13834;SDS011;6988;52.614;13.500;2022-08-20T09:10:33;36.13;;;32.20;;
13834;SDS011;6988;52.614;13.500;2022-08-20T09:15:25;37.58;;;32.47;;
13834;SDS011;6988;52.614;13.500;2022-08-20T09:20:18;38.20;;;32.40;;
13834;SDS011;6988;52.614;13.500;2022-08-20T09:25:10;38.53;;;31.13;;
13834;SDS011;6988;52.614;13.500;2022-08-20T09:30:02;37.83;;;32.23;;
13834;SDS011;6988;52.614;13.500;2022-08-20T09:34:55;34.37;;;30.13;;
13834;SDS011;6988;52.614;13.500;2022-08-20T09:39:50;37.13;;;30.77;;
13834;SDS011;6988;52.614;13.500;2022-08-20T09:44:42;36.55;;;31.27;;
13834;SDS011;6988;52.614;13.500;2022-08-20T09:49:34;34.50;;;30.65;;
13834;SDS011;6988;52.614;13.500;2022-08-20T09:54:27;36.35;;;30.90;;
13834;SDS011;6988;52.614;13.500;2022-08-20T09:59:23;37.53;;;30.90;;
13834;SDS011;6988;52.614;13.500;2022-08-20T10:04:17;33.10;;;28.15;;
13834;SDS011;6988;52.614;13.500;2022-08-20T10:09:09;34.22;;;29.17;;
13834;SDS011;6988;52.614;13.500;2022-08-20T10:14:01;32.80;;;28.13;;
13834;SDS011;6988;52.614;13.500;2022-08-20T10:18:54;33.63;;;29.10;;
13834;SDS011;6988;52.614;13.500;2022-08-20T10:23:46;34.10;;;26.60;;
13834;SDS011;6988;52.614;13.500;2022-08-20T10:28:39;30.58;;;26.90;;
13834;SDS011;6988;52.614;13.500;2022-08-20T10:33:31;29.70;;;25.95;;
13834;SDS011;6988;52.614;13.500;2022-08-20T10:38:24;26.77;;;23.33;;
13834;SDS011;6988;52.614;13.500;2022-08-20T10:43:16;22.90;;;20.50;;
13834;SDS011;6988;52.614;13.500;2022-08-20T10:48:08;20.15;;;18.10;;
13834;SDS011;6988;52.614;13.500;2022-08-20T10:52:59;22.02;;;18.45;;
13834;SDS011;6988;52.614;13.500;2022-08-20T10:57:52;19.20;;;17.00;;
13834;SDS011;6988;52.614;13.500;2022-08-20T11:02:44;17.33;;;15.63;;
13834;SDS011;6988;52.614;13.500;2022-08-20T11:07:37;15.00;;;13.50;;
13834;SDS011;6988;52.614;13.500;2022-08-20T11:12:31;14.68;;;13.27;;
13834;SDS011;6988;52.614;13.500;2022-08-20T11:17:26;14.00;;;12.57;;
13834;SDS011;6988;52.614;13.500;2022-08-20T11:22:21;13.38;;;11.63;;
13834;SDS011;6988;52.614;13.500;2022-08-20T11:27:17;11.40;;;10.30;;
13834;SDS011;6988;52.614;13.500;2022-08-20T11:32:14;8.85;;;8.02;;
13834;SDS011;6988;52.614;13.500;2022-08-20T11:37:08;8.90;;;8.10;;
13834;SDS011;6988;52.614;13.500;2022-08-20T11:42:00;8.15;;;7.38;;
13834;SDS011;6988;52.614;13.500;2022-08-20T11:46:51;8.50;;;7.53;;
13834;SDS011;6988;52.614;13.500;2022-08-20T11:51:44;8.95;;;6.70;;
13834;SDS011;6988;52.614;13.500;2022-08-20T11:56:37;7.07;;;6.45;;
13834;SDS011;6988;52.614;13.500;2022-08-20T12:01:28;6.97;;;6.38;;
13834;SDS011;6988;52.614;13.500;2022-08-20T12:06:20;7.07;;;6.47;;
13834;SDS011;6988;52.614;13.500;2022-08-20T12:11:12;6.88;;;6.18;;
13834;SDS011;6988;52.614;13.500;2022-08-20T12:16:06;6.90;;;6.22;;
13834;SDS011;6988;52.614;13.500;2022-08-20T12:20:57;6.60;;;6.00;;
13834;SDS011;6988;52.614;13.500;2022-08-20T12:25:49;6.93;;;6.18;;
13834;SDS011;6988;52.614;13.500;2022-08-20T12:30:41;7.28;;;5.90;;
13834;SDS011;6988;52.614;13.500;2022-08-20T12:35:35;5.85;;;5.35;;
13834;SDS011;6988;52.614;13.500;2022-08-20T12:40:27;6.03;;;5.45;;
13834;SDS011;6988;52.614;13.500;2022-08-20T12:45:19;5.85;;;5.35;;
13834;SDS011;6988;52.614;13.500;2022-08-20T12:50:12;6.38;;;4.97;;
13834;SDS011;6988;52.614;13.500;2022-08-20T12:55:09;5.60;;;5.10;;
13834;SDS011;6988;52.614;13.500;2022-08-20T13:00:08;5.95;;;5.43;;
13834;SDS011;6988;52.614;13.500;2022-08-20T13:05:04;6.50;;;5.82;;
13834;SDS011;6988;52.614;13.500;2022-08-20T13:09:57;6.45;;;5.85;;
13834;SDS011;6988;52.614;13.500;2022-08-20T13:14:51;8.73;;;7.32;;
13834;SDS011;6988;52.614;13.500;2022-08-20T13:19:43;8.43;;;7.63;;
13834;SDS011;6988;52.614;13.500;2022-08-20T13:24:35;9.00;;;8.07;;
13834;SDS011;6988;52.614;13.500;2022-08-20T13:29:27;8.18;;;7.38;;
13834;SDS011;6988;52.614;13.500;2022-08-20T13:34:20;8.15;;;7.32;;
13834;SDS011;6988;52.614;13.500;2022-08-20T13:39:12;8.75;;;7.25;;
13834;SDS011;6988;52.614;13.500;2022-08-20T13:44:03;8.88;;;8.07;;
13834;SDS011;6988;52.614;13.500;2022-08-20T13:48:55;9.15;;;8.25;;
13834;SDS011;6988;52.614;13.500;2022-08-20T13:53:48;9.82;;;8.82;;
13834;SDS011;6988;52.614;13.500;2022-08-20T13:58:40;10.32;;;9.40;;
13834;SDS011;6988;52.614;13.500;2022-08-20T14:03:32;10.60;;;9.52;;
13834;SDS011;6988;52.614;13.500;2022-08-20T14:08:24;10.45;;;9.40;;
13834;SDS011;6988;52.614;13.500;2022-08-20T14:13:17;11.15;;;10.05;;
13834;SDS011;6988;52.614;13.500;2022-08-20T14:18:12;11.40;;;10.07;;
13834;SDS011;6988;52.614;13.500;2022-08-20T14:23:05;13.70;;;11.10;;
13834;SDS011;6988;52.614;13.500;2022-08-20T14:27:57;11.55;;;10.35;;
13834;SDS011;6988;52.614;13.500;2022-08-20T14:32:59;11.45;;;10.23;;
13834;SDS011;6988;52.614;13.500;2022-08-20T14:37:51;11.98;;;10.77;;
13834;SDS011;6988;52.614;13.500;2022-08-20T14:42:45;11.80;;;10.57;;
13834;SDS011;6988;52.614;13.500;2022-08-20T14:47:39;12.63;;;11.10;;
13834;SDS011;6988;52.614;13.500;2022-08-20T14:52:37;12.10;;;10.77;;
13834;SDS011;6988;52.614;13.500;2022-08-20T14:57:30;13.50;;;12.10;;
13834;SDS011;6988;52.614;13.500;2022-08-20T15:02:22;11.93;;;10.82;;
13834;SDS011;6988;52.614;13.500;2022-08-20T15:07:20;13.85;;;12.55;;
13834;SDS011;6988;52.614;13.500;2022-08-20T15:12:16;13.55;;;12.13;;
13834;SDS011;6988;52.614;13.500;2022-08-20T15:17:08;14.15;;;12.77;;
13834;SDS011;6988;52.614;13.500;2022-08-20T15:22:01;14.40;;;12.90;;
13834;SDS011;6988;52.614;13.500;2022-08-20T15:26:53;16.77;;;14.02;;
13834;SDS011;6988;52.614;13.500;2022-08-20T15:31:46;15.82;;;13.35;;
13834;SDS011;6988;52.614;13.500;2022-08-20T15:36:38;15.93;;;14.23;;
13834;SDS011;6988;52.614;13.500;2022-08-20T15:41:30;16.67;;;14.88;;
13834;SDS011;6988;52.614;13.500;2022-08-20T15:46:21;16.75;;;14.10;;
13834;SDS011;6988;52.614;13.500;2022-08-20T15:51:19;18.10;;;15.18;;
13834;SDS011;6988;52.614;13.500;2022-08-20T15:56:21;16.08;;;14.48;;
13834;SDS011;6988;52.614;13.500;2022-08-20T16:01:30;14.40;;;13.10;;
13834;SDS011;6988;52.614;13.500;2022-08-20T16:06:36;14.93;;;13.50;;
13834;SDS011;6988;52.614;13.500;2022-08-20T16:11:31;16.48;;;14.85;;
13834;SDS011;6988;52.614;13.500;2022-08-20T16:16:38;16.40;;;14.68;;
13834;SDS011;6988;52.614;13.500;2022-08-20T16:21:36;16.77;;;15.02;;
13834;SDS011;6988;52.614;13.500;2022-08-20T16:26:41;17.27;;;15.52;;
13834;SDS011;6988;52.614;13.500;2022-08-20T16:31:52;16.48;;;14.77;;
13834;SDS011;6988;52.614;13.500;2022-08-20T16:36:53;18.42;;;16.52;;
13834;SDS011;6988;52.614;13.500;2022-08-20T16:41:54;15.95;;;14.35;;
13834;SDS011;6988;52.614;13.500;2022-08-20T16:46:48;16.67;;;15.00;;
13834;SDS011;6988;52.614;13.500;2022-08-20T16:51:45;17.95;;;16.15;;
13834;SDS011;6988;52.614;13.500;2022-08-20T16:56:42;17.33;;;15.52;;
13834;SDS011;6988;52.614;13.500;2022-08-20T17:01:38;17.42;;;15.70;;
13834;SDS011;6988;52.614;13.500;2022-08-20T17:06:31;18.35;;;16.55;;
13834;SDS011;6988;52.614;13.500;2022-08-20T17:11:26;17.17;;;15.48;;
13834;SDS011;6988;52.614;13.500;2022-08-20T17:16:23;19.23;;;16.92;;
13834;SDS011;6988;52.614;13.500;2022-08-20T17:21:16;20.80;;;18.45;;
13834;SDS011;6988;52.614;13.500;2022-08-20T17:26:15;21.02;;;18.83;;
13834;SDS011;6988;52.614;13.500;2022-08-20T17:31:17;21.33;;;19.13;;
13834;SDS011;6988;52.614;13.500;2022-08-20T17:36:22;22.17;;;19.30;;
13834;SDS011;6988;52.614;13.500;2022-08-20T17:41:16;22.13;;;18.52;;
13834;SDS011;6988;52.614;13.500;2022-08-20T17:46:13;23.30;;;20.10;;
13834;SDS011;6988;52.614;13.500;2022-08-20T17:51:12;18.75;;;16.80;;
13834;SDS011;6988;52.614;13.500;2022-08-20T17:56:11;20.48;;;18.30;;
13834;SDS011;6988;52.614;13.500;2022-08-20T18:01:09;20.98;;;17.77;;
13834;SDS011;6988;52.614;13.500;2022-08-20T18:06:05;21.23;;;18.25;;
13834;SDS011;6988;52.614;13.500;2022-08-20T18:11:15;18.63;;;16.73;;
13834;SDS011;6988;52.614;13.500;2022-08-20T18:16:15;18.63;;;16.73;;
13834;SDS011;6988;52.614;13.500;2022-08-20T18:26:57;22.27;;;19.90;;
13834;SDS011;6988;52.614;13.500;2022-08-20T18:31:54;20.25;;;17.95;;
13834;SDS011;6988;52.614;13.500;2022-08-20T18:36:53;19.57;;;17.47;;
13834;SDS011;6988;52.614;13.500;2022-08-20T18:41:55;16.33;;;14.43;;
13834;SDS011;6988;52.614;13.500;2022-08-20T18:46:50;14.20;;;12.80;;
13834;SDS011;6988;52.614;13.500;2022-08-20T18:51:47;11.65;;;10.45;;
13834;SDS011;6988;52.614;13.500;2022-08-20T18:56:41;10.20;;;9.30;;
13834;SDS011;6988;52.614;13.500;2022-08-20T19:01:35;10.23;;;9.25;;
13834;SDS011;6988;52.614;13.500;2022-08-20T19:06:31;9.80;;;8.90;;
13834;SDS011;6988;52.614;13.500;2022-08-20T19:11:44;9.20;;;8.30;;
13834;SDS011;6988;52.614;13.500;2022-08-20T19:16:56;8.93;;;8.10;;
13834;SDS011;6988;52.614;13.500;2022-08-20T19:21:54;10.90;;;8.20;;
13834;SDS011;6988;52.614;13.500;2022-08-20T19:26:48;9.87;;;8.30;;
13834;SDS011;6988;52.614;13.500;2022-08-20T19:31:45;8.53;;;7.67;;
13834;SDS011;6988;52.614;13.500;2022-08-20T19:36:40;8.47;;;7.60;;
13834;SDS011;6988;52.614;13.500;2022-08-20T19:41:34;8.70;;;7.87;;
13834;SDS011;6988;52.614;13.500;2022-08-20T19:46:36;8.93;;;8.03;;
13834;SDS011;6988;52.614;13.500;2022-08-20T19:51:31;9.20;;;8.33;;
13834;SDS011;6988;52.614;13.500;2022-08-20T19:56:41;9.30;;;8.40;;
13834;SDS011;6988;52.614;13.500;2022-08-20T20:01:33;11.07;;;9.93;;
13834;SDS011;6988;52.614;13.500;2022-08-20T20:06:27;9.67;;;8.70;;
13834;SDS011;6988;52.614;13.500;2022-08-20T20:11:25;10.27;;;8.87;;
13834;SDS011;6988;52.614;13.500;2022-08-20T20:16:23;11.33;;;8.83;;
13834;SDS011;6988;52.614;13.500;2022-08-20T20:21:16;10.80;;;9.47;;
13834;SDS011;6988;52.614;13.500;2022-08-20T20:26:15;11.70;;;9.97;;
13834;SDS011;6988;52.614;13.500;2022-08-20T20:31:12;11.47;;;10.37;;
13834;SDS011;6988;52.614;13.500;2022-08-20T20:36:12;14.23;;;11.30;;
13834;SDS011;6988;52.614;13.500;2022-08-20T20:41:20;14.27;;;12.77;;
13834;SDS011;6988;52.614;13.500;2022-08-20T20:46:19;14.60;;;12.67;;
13834;SDS011;6988;52.614;13.500;2022-08-20T20:51:14;13.57;;;12.13;;
13834;SDS011;6988;52.614;13.500;2022-08-20T20:56:23;12.43;;;11.23;;
13834;SDS011;6988;52.614;13.500;2022-08-20T21:01:20;11.87;;;10.37;;
13834;SDS011;6988;52.614;13.500;2022-08-20T21:06:11;11.87;;;10.67;;
13834;SDS011;6988;52.614;13.500;2022-08-20T21:11:04;11.03;;;9.93;;
13834;SDS011;6988;52.614;13.500;2022-08-20T21:15:55;12.33;;;11.00;;
13834;SDS011;6988;52.614;13.500;2022-08-20T21:20:48;11.37;;;9.67;;
13834;SDS011;6988;52.614;13.500;2022-08-20T21:25:41;12.03;;;10.80;;
13834;SDS011;6988;52.614;13.500;2022-08-20T21:30:33;10.57;;;9.47;;
13834;SDS011;6988;52.614;13.500;2022-08-20T21:35:25;11.00;;;9.90;;
13834;SDS011;6988;52.614;13.500;2022-08-20T21:40:18;11.03;;;9.93;;
13834;SDS011;6988;52.614;13.500;2022-08-20T21:45:11;10.77;;;9.63;;
13834;SDS011;6988;52.614;13.500;2022-08-20T22:04:35;11.53;;;10.07;;
13834;SDS011;6988;52.614;13.500;2022-08-20T22:09:27;12.27;;;10.70;;
13834;SDS011;6988;52.614;13.500;2022-08-20T22:14:19;12.97;;;10.10;;
13834;SDS011;6988;52.614;13.500;2022-08-20T22:19:11;10.90;;;9.77;;
13834;SDS011;6988;52.614;13.500;2022-08-20T22:24:06;11.40;;;9.17;;
13834;SDS011;6988;52.614;13.500;2022-08-20T22:29:01;11.33;;;9.73;;
13834;SDS011;6988;52.614;13.500;2022-08-20T22:33:54;10.20;;;9.00;;
13834;SDS011;6988;52.614;13.500;2022-08-20T22:38:47;9.87;;;8.93;;
13834;SDS011;6988;52.614;13.500;2022-08-20T22:43:40;10.10;;;8.93;;
13834;SDS011;6988;52.614;13.500;2022-08-20T22:48:32;9.73;;;8.73;;
13834;SDS011;6988;52.614;13.500;2022-08-20T22:53:25;10.47;;;9.33;;
13834;SDS011;6988;52.614;13.500;2022-08-20T22:58:18;11.07;;;9.37;;
13834;SDS011;6988;52.614;13.500;2022-08-20T23:03:12;9.57;;;8.67;;
13834;SDS011;6988;52.614;13.500;2022-08-20T23:08:06;12.63;;;9.07;;
13834;SDS011;6988;52.614;13.500;2022-08-20T23:12:58;9.80;;;8.57;;
13834;SDS011;6988;52.614;13.500;2022-08-20T23:17:51;10.27;;;8.70;;
13834;SDS011;6988;52.614;13.500;2022-08-20T23:22:48;9.87;;;8.87;;
13834;SDS011;6988;52.614;13.500;2022-08-20T23:27:40;11.70;;;10.47;;
13834;SDS011;6988;52.614;13.500;2022-08-20T23:32:36;10.07;;;9.07;;
13834;SDS011;6988;52.614;13.500;2022-08-20T23:37:28;13.57;;;10.07;;
13834;SDS011;6988;52.614;13.500;2022-08-20T23:42:22;11.00;;;9.57;;
13834;SDS011;6988;52.614;13.500;2022-08-20T23:47:16;11.27;;;10.00;;
13834;SDS011;6988;52.614;13.500;2022-08-20T23:52:11;13.67;;;10.10;;
13834;SDS011;6988;52.614;13.500;2022-08-20T23:57:03;11.00;;;9.53;;
